sensor_id;sensor_type;location;lat;lon;timestamp;P1;durP1;ratioP1;P2;durP2;ratioP2
68765;SDS011;55756;45.582;11.484;2023-03-14T00:00:35;19.83;;;10.80;;
68765;SDS011;55756;45.582;11.484;2023-03-14T00:03:01;18.67;;;10.85;;
68765;SDS011;55756;45.582;11.484;2023-03-14T00:05:27;19.30;;;11.25;;
68765;SDS011;55756;45.582;11.484;2023-03-14T00:07:52;18.40;;;10.35;;
68765;SDS011;55756;45.582;11.484;2023-03-14T00:10:18;18.25;;;10.65;;
68765;SDS011;55756;45.582;11.484;2023-03-14T00:12:44;17.42;;;10.38;;
68765;SDS011;55756;45.582;11.484;2023-03-14T00:15:10;17.30;;;10.30;;
68765;SDS011;55756;45.582;11.484;2023-03-14T00:17:37;16.48;;;10.48;;
68765;SDS011;55756;45.582;11.484;2023-03-14T00:20:03;20.48;;;10.52;;
68765;SDS011;55756;45.582;11.484;2023-03-14T00:22:39;16.70;;;10.90;;
68765;SDS011;55756;45.582;11.484;2023-03-14T00:25:06;20.58;;;10.82;;
68765;SDS011;55756;45.582;11.484;2023-03-14T00:27:34;21.20;;;11.40;;
68765;SDS011;55756;45.582;11.484;2023-03-14T00:30:00;17.85;;;10.93;;
68765;SDS011;55756;45.582;11.484;2023-03-14T00:32:26;16.95;;;11.00;;
68765;SDS011;55756;45.582;11.484;2023-03-14T00:34:52;17.65;;;11.00;;
68765;SDS011;55756;45.582;11.484;2023-03-14T00:37:18;18.30;;;10.65;;
68765;SDS011;55756;45.582;11.484;2023-03-14T00:39:44;17.00;;;10.75;;
68765;SDS011;55756;45.582;11.484;2023-03-14T00:42:10;18.13;;;10.75;;
68765;SDS011;55756;45.582;11.484;2023-03-14T00:44:36;19.10;;;11.10;;
68765;SDS011;55756;45.582;11.484;2023-03-14T00:47:05;20.10;;;11.00;;
68765;SDS011;55756;45.582;11.484;2023-03-14T00:49:31;21.38;;;11.10;;
68765;SDS011;55756;45.582;11.484;2023-03-14T00:51:57;18.65;;;10.85;;
68765;SDS011;55756;45.582;11.484;2023-03-14T00:54:23;18.27;;;11.23;;
68765;SDS011;55756;45.582;11.484;2023-03-14T00:56:48;24.15;;;11.82;;
68765;SDS011;55756;45.582;11.484;2023-03-14T00:59:15;18.52;;;11.73;;
68765;SDS011;55756;45.582;11.484;2023-03-14T01:01:41;21.38;;;12.95;;
68765;SDS011;55756;45.582;11.484;2023-03-14T01:04:07;21.25;;;13.20;;
68765;SDS011;55756;45.582;11.484;2023-03-14T01:06:33;22.45;;;12.63;;
68765;SDS011;55756;45.582;11.484;2023-03-14T01:08:58;21.42;;;12.57;;
68765;SDS011;55756;45.582;11.484;2023-03-14T01:11:27;22.05;;;13.77;;
68765;SDS011;55756;45.582;11.484;2023-03-14T01:13:56;24.88;;;13.82;;
68765;SDS011;55756;45.582;11.484;2023-03-14T01:16:23;22.70;;;13.30;;
68765;SDS011;55756;45.582;11.484;2023-03-14T01:18:51;22.05;;;14.10;;
68765;SDS011;55756;45.582;11.484;2023-03-14T01:21:28;24.85;;;14.13;;
68765;SDS011;55756;45.582;11.484;2023-03-14T01:23:56;29.63;;;14.20;;
68765;SDS011;55756;45.582;11.484;2023-03-14T01:26:24;24.90;;;15.13;;
68765;SDS011;55756;45.582;11.484;2023-03-14T01:28:52;20.83;;;13.82;;
68765;SDS011;55756;45.582;11.484;2023-03-14T01:31:19;20.75;;;14.27;;
68765;SDS011;55756;45.582;11.484;2023-03-14T01:33:45;23.08;;;14.43;;
68765;SDS011;55756;45.582;11.484;2023-03-14T01:36:11;23.85;;;14.55;;
68765;SDS011;55756;45.582;11.484;2023-03-14T01:38:38;23.88;;;15.70;;
68765;SDS011;55756;45.582;11.484;2023-03-14T01:41:08;25.90;;;16.20;;
68765;SDS011;55756;45.582;11.484;2023-03-14T01:43:38;25.02;;;15.88;;
68765;SDS011;55756;45.582;11.484;2023-03-14T01:51:05;25.92;;;15.50;;
68765;SDS011;55756;45.582;11.484;2023-03-14T01:53:35;23.05;;;15.70;;
68765;SDS011;55756;45.582;11.484;2023-03-14T01:56:04;24.75;;;16.15;;
68765;SDS011;55756;45.582;11.484;2023-03-14T01:58:31;22.65;;;14.68;;
68765;SDS011;55756;45.582;11.484;2023-03-14T02:01:02;23.45;;;15.32;;
68765;SDS011;55756;45.582;11.484;2023-03-14T02:03:29;23.60;;;14.77;;
68765;SDS011;55756;45.582;11.484;2023-03-14T02:06:03;23.20;;;15.05;;
68765;SDS011;55756;45.582;11.484;2023-03-14T02:08:34;22.65;;;15.57;;
68765;SDS011;55756;45.582;11.484;2023-03-14T02:11:05;26.33;;;16.13;;
68765;SDS011;55756;45.582;11.484;2023-03-14T02:13:45;26.52;;;16.27;;
68765;SDS011;55756;45.582;11.484;2023-03-14T02:16:30;25.00;;;15.35;;
68765;SDS011;55756;45.582;11.484;2023-03-14T02:22:10;26.95;;;15.95;;
68765;SDS011;55756;45.582;11.484;2023-03-14T02:25:12;24.83;;;16.90;;
68765;SDS011;55756;45.582;11.484;2023-03-14T02:27:43;29.75;;;18.27;;
68765;SDS011;55756;45.582;11.484;2023-03-14T02:32:43;25.33;;;15.48;;
68765;SDS011;55756;45.582;11.484;2023-03-14T02:35:15;22.67;;;15.27;;
68765;SDS011;55756;45.582;11.484;2023-03-14T02:40:25;25.48;;;15.88;;
68765;SDS011;55756;45.582;11.484;2023-03-14T02:42:52;23.70;;;14.95;;
68765;SDS011;55756;45.582;11.484;2023-03-14T02:47:54;21.75;;;15.05;;
68765;SDS011;55756;45.582;11.484;2023-03-14T02:50:26;25.20;;;15.75;;
68765;SDS011;55756;45.582;11.484;2023-03-14T02:52:55;25.38;;;16.08;;
68765;SDS011;55756;45.582;11.484;2023-03-14T02:55:22;22.95;;;15.57;;
68765;SDS011;55756;45.582;11.484;2023-03-14T02:57:52;23.88;;;16.15;;
68765;SDS011;55756;45.582;11.484;2023-03-14T03:00:18;28.25;;;16.20;;
68765;SDS011;55756;45.582;11.484;2023-03-14T03:02:44;26.35;;;15.70;;
68765;SDS011;55756;45.582;11.484;2023-03-14T03:05:13;23.15;;;15.43;;
68765;SDS011;55756;45.582;11.484;2023-03-14T03:07:39;24.13;;;15.90;;
68765;SDS011;55756;45.582;11.484;2023-03-14T03:10:05;26.95;;;16.17;;
68765;SDS011;55756;45.582;11.484;2023-03-14T03:12:31;23.98;;;15.65;;
68765;SDS011;55756;45.582;11.484;2023-03-14T03:14:57;23.98;;;15.65;;
68765;SDS011;55756;45.582;11.484;2023-03-14T03:17:22;22.70;;;15.45;;
68765;SDS011;55756;45.582;11.484;2023-03-14T03:19:48;26.02;;;16.10;;
68765;SDS011;55756;45.582;11.484;2023-03-14T03:22:14;26.23;;;16.38;;
68765;SDS011;55756;45.582;11.484;2023-03-14T03:24:40;23.55;;;16.17;;
68765;SDS011;55756;45.582;11.484;2023-03-14T03:27:05;24.27;;;16.17;;
68765;SDS011;55756;45.582;11.484;2023-03-14T03:29:34;24.90;;;16.05;;
68765;SDS011;55756;45.582;11.484;2023-03-14T03:32:00;23.58;;;16.48;;
68765;SDS011;55756;45.582;11.484;2023-03-14T03:34:26;25.60;;;16.27;;
68765;SDS011;55756;45.582;11.484;2023-03-14T03:36:57;24.63;;;17.52;;
68765;SDS011;55756;45.582;11.484;2023-03-14T03:39:26;26.20;;;17.13;;
68765;SDS011;55756;45.582;11.484;2023-03-14T03:41:52;26.95;;;18.42;;
68765;SDS011;55756;45.582;11.484;2023-03-14T03:44:19;26.90;;;18.20;;
68765;SDS011;55756;45.582;11.484;2023-03-14T03:46:45;27.73;;;17.92;;
68765;SDS011;55756;45.582;11.484;2023-03-14T03:49:10;27.20;;;17.80;;
68765;SDS011;55756;45.582;11.484;2023-03-14T03:51:36;26.77;;;17.40;;
68765;SDS011;55756;45.582;11.484;2023-03-14T03:54:02;24.98;;;17.17;;
68765;SDS011;55756;45.582;11.484;2023-03-14T03:56:31;28.17;;;17.85;;
68765;SDS011;55756;45.582;11.484;2023-03-14T03:58:57;28.77;;;17.38;;
68765;SDS011;55756;45.582;11.484;2023-03-14T04:01:23;25.65;;;17.60;;
68765;SDS011;55756;45.582;11.484;2023-03-14T04:06:18;27.60;;;18.38;;
68765;SDS011;55756;45.582;11.484;2023-03-14T04:08:46;27.38;;;17.83;;
68765;SDS011;55756;45.582;11.484;2023-03-14T04:11:32;24.05;;;16.15;;
68765;SDS011;55756;45.582;11.484;2023-03-14T04:14:12;27.75;;;17.20;;
68765;SDS011;55756;45.582;11.484;2023-03-14T04:16:37;22.75;;;16.30;;
68765;SDS011;55756;45.582;11.484;2023-03-14T04:19:10;22.67;;;16.40;;
68765;SDS011;55756;45.582;11.484;2023-03-14T04:21:35;25.73;;;16.75;;
68765;SDS011;55756;45.582;11.484;2023-03-14T04:24:01;23.77;;;17.23;;
68765;SDS011;55756;45.582;11.484;2023-03-14T04:26:30;27.40;;;17.50;;
68765;SDS011;55756;45.582;11.484;2023-03-14T04:28:56;26.23;;;17.15;;
68765;SDS011;55756;45.582;11.484;2023-03-14T04:31:22;25.85;;;16.48;;
68765;SDS011;55756;45.582;11.484;2023-03-14T04:33:49;23.58;;;16.42;;
68765;SDS011;55756;45.582;11.484;2023-03-14T04:36:20;27.95;;;17.55;;
68765;SDS011;55756;45.582;11.484;2023-03-14T04:38:46;23.95;;;16.02;;
68765;SDS011;55756;45.582;11.484;2023-03-14T04:41:17;25.42;;;17.08;;
68765;SDS011;55756;45.582;11.484;2023-03-14T04:43:43;27.50;;;17.83;;
68765;SDS011;55756;45.582;11.484;2023-03-14T04:46:10;36.92;;;26.98;;
68765;SDS011;55756;45.582;11.484;2023-03-14T04:48:37;121.05;;;76.10;;
68765;SDS011;55756;45.582;11.484;2023-03-14T04:51:04;154.90;;;94.43;;
68765;SDS011;55756;45.582;11.484;2023-03-14T04:53:32;68.03;;;41.47;;
68765;SDS011;55756;45.582;11.484;2023-03-14T04:56:02;45.45;;;29.48;;
68765;SDS011;55756;45.582;11.484;2023-03-14T04:58:35;45.50;;;29.00;;
68765;SDS011;55756;45.582;11.484;2023-03-14T05:01:05;37.25;;;22.27;;
68765;SDS011;55756;45.582;11.484;2023-03-14T05:03:50;27.52;;;18.55;;
68765;SDS011;55756;45.582;11.484;2023-03-14T05:06:23;26.10;;;15.90;;
68765;SDS011;55756;45.582;11.484;2023-03-14T05:09:15;24.65;;;15.70;;
68765;SDS011;55756;45.582;11.484;2023-03-14T05:12:00;23.92;;;14.90;;
68765;SDS011;55756;45.582;11.484;2023-03-14T05:14:46;22.85;;;15.00;;
68765;SDS011;55756;45.582;11.484;2023-03-14T05:17:12;23.83;;;14.45;;
68765;SDS011;55756;45.582;11.484;2023-03-14T05:19:39;22.80;;;15.18;;
68765;SDS011;55756;45.582;11.484;2023-03-14T05:22:32;23.77;;;14.38;;
68765;SDS011;55756;45.582;11.484;2023-03-14T05:25:09;23.73;;;14.40;;
68765;SDS011;55756;45.582;11.484;2023-03-14T05:27:54;20.52;;;13.48;;
68765;SDS011;55756;45.582;11.484;2023-03-14T05:30:39;23.98;;;14.07;;
68765;SDS011;55756;45.582;11.484;2023-03-14T05:33:40;21.58;;;13.80;;
68765;SDS011;55756;45.582;11.484;2023-03-14T05:36:13;22.67;;;13.80;;
68765;SDS011;55756;45.582;11.484;2023-03-14T05:38:41;22.35;;;13.63;;
68765;SDS011;55756;45.582;11.484;2023-03-14T05:41:25;21.85;;;13.65;;
68765;SDS011;55756;45.582;11.484;2023-03-14T05:46:43;21.65;;;13.80;;
68765;SDS011;55756;45.582;11.484;2023-03-14T05:49:27;21.42;;;13.23;;
68765;SDS011;55756;45.582;11.484;2023-03-14T05:52:04;21.25;;;12.73;;
68765;SDS011;55756;45.582;11.484;2023-03-14T05:54:50;21.60;;;12.63;;
68765;SDS011;55756;45.582;11.484;2023-03-14T05:57:26;22.10;;;12.30;;
68765;SDS011;55756;45.582;11.484;2023-03-14T06:00:10;25.13;;;12.70;;
68765;SDS011;55756;45.582;11.484;2023-03-14T06:02:46;22.40;;;12.75;;
68765;SDS011;55756;45.582;11.484;2023-03-14T06:05:21;23.00;;;12.73;;
68765;SDS011;55756;45.582;11.484;2023-03-14T06:07:50;20.98;;;12.13;;
68765;SDS011;55756;45.582;11.484;2023-03-14T06:10:15;21.38;;;12.40;;
68765;SDS011;55756;45.582;11.484;2023-03-14T06:12:41;24.50;;;12.40;;
68765;SDS011;55756;45.582;11.484;2023-03-14T06:15:07;24.10;;;12.77;;
68765;SDS011;55756;45.582;11.484;2023-03-14T06:17:33;23.92;;;13.10;;
68765;SDS011;55756;45.582;11.484;2023-03-14T06:20:05;26.90;;;13.38;;
68765;SDS011;55756;45.582;11.484;2023-03-14T06:22:31;24.83;;;13.35;;
68765;SDS011;55756;45.582;11.484;2023-03-14T06:24:57;23.23;;;12.85;;
68765;SDS011;55756;45.582;11.484;2023-03-14T06:27:24;26.15;;;12.77;;
68765;SDS011;55756;45.582;11.484;2023-03-14T06:29:54;25.48;;;13.93;;
68765;SDS011;55756;45.582;11.484;2023-03-14T06:32:20;25.10;;;13.75;;
68765;SDS011;55756;45.582;11.484;2023-03-14T06:34:48;25.08;;;12.48;;
68765;SDS011;55756;45.582;11.484;2023-03-14T06:37:14;23.77;;;12.70;;
68765;SDS011;55756;45.582;11.484;2023-03-14T06:39:40;26.90;;;12.98;;
68765;SDS011;55756;45.582;11.484;2023-03-14T06:42:14;24.45;;;12.68;;
68765;SDS011;55756;45.582;11.484;2023-03-14T06:44:41;23.13;;;13.38;;
68765;SDS011;55756;45.582;11.484;2023-03-14T06:47:07;23.75;;;14.85;;
68765;SDS011;55756;45.582;11.484;2023-03-14T06:49:34;22.75;;;13.95;;
68765;SDS011;55756;45.582;11.484;2023-03-14T06:52:01;24.50;;;13.73;;
68765;SDS011;55756;45.582;11.484;2023-03-14T06:54:28;22.08;;;13.85;;
68765;SDS011;55756;45.582;11.484;2023-03-14T06:56:54;27.80;;;15.23;;
68765;SDS011;55756;45.582;11.484;2023-03-14T06:59:20;26.50;;;15.57;;
68765;SDS011;55756;45.582;11.484;2023-03-14T07:01:47;26.58;;;15.50;;
68765;SDS011;55756;45.582;11.484;2023-03-14T07:04:15;25.37;;;14.97;;
68765;SDS011;55756;45.582;11.484;2023-03-14T07:06:45;27.65;;;15.63;;
68765;SDS011;55756;45.582;11.484;2023-03-14T07:09:12;25.83;;;14.68;;
68765;SDS011;55756;45.582;11.484;2023-03-14T07:11:44;25.48;;;14.10;;
68765;SDS011;55756;45.582;11.484;2023-03-14T07:14:10;24.88;;;14.60;;
68765;SDS011;55756;45.582;11.484;2023-03-14T07:16:36;24.05;;;14.85;;
68765;SDS011;55756;45.582;11.484;2023-03-14T07:19:02;23.15;;;14.40;;
68765;SDS011;55756;45.582;11.484;2023-03-14T07:21:28;25.65;;;14.40;;
68765;SDS011;55756;45.582;11.484;2023-03-14T07:23:54;21.98;;;14.68;;
68765;SDS011;55756;45.582;11.484;2023-03-14T07:26:20;27.52;;;14.70;;
68765;SDS011;55756;45.582;11.484;2023-03-14T07:28:49;24.27;;;14.27;;
68765;SDS011;55756;45.582;11.484;2023-03-14T07:31:17;26.48;;;14.43;;
68765;SDS011;55756;45.582;11.484;2023-03-14T07:33:43;26.17;;;14.73;;
68765;SDS011;55756;45.582;11.484;2023-03-14T07:36:09;24.70;;;14.50;;
68765;SDS011;55756;45.582;11.484;2023-03-14T07:38:37;22.10;;;14.83;;
68765;SDS011;55756;45.582;11.484;2023-03-14T07:41:12;23.13;;;15.13;;
68765;SDS011;55756;45.582;11.484;2023-03-14T07:43:45;23.90;;;14.35;;
68765;SDS011;55756;45.582;11.484;2023-03-14T07:46:12;25.10;;;14.70;;
68765;SDS011;55756;45.582;11.484;2023-03-14T07:48:37;25.63;;;15.20;;
68765;SDS011;55756;45.582;11.484;2023-03-14T07:51:03;23.35;;;15.68;;
68765;SDS011;55756;45.582;11.484;2023-03-14T07:53:29;27.35;;;16.65;;
68765;SDS011;55756;45.582;11.484;2023-03-14T07:55:55;26.20;;;17.13;;
68765;SDS011;55756;45.582;11.484;2023-03-14T07:58:21;28.75;;;16.80;;
68765;SDS011;55756;45.582;11.484;2023-03-14T08:00:47;23.92;;;16.48;;
68765;SDS011;55756;45.582;11.484;2023-03-14T08:03:13;25.23;;;17.75;;
68765;SDS011;55756;45.582;11.484;2023-03-14T08:05:39;25.20;;;17.05;;
68765;SDS011;55756;45.582;11.484;2023-03-14T08:08:05;24.92;;;16.88;;
68765;SDS011;55756;45.582;11.484;2023-03-14T08:10:31;34.00;;;23.25;;
68765;SDS011;55756;45.582;11.484;2023-03-14T08:12:58;29.85;;;20.10;;
68765;SDS011;55756;45.582;11.484;2023-03-14T08:15:25;31.77;;;18.73;;
68765;SDS011;55756;45.582;11.484;2023-03-14T08:17:51;27.38;;;18.17;;
68765;SDS011;55756;45.582;11.484;2023-03-14T08:20:22;27.63;;;18.50;;
68765;SDS011;55756;45.582;11.484;2023-03-14T08:22:50;29.33;;;18.33;;
68765;SDS011;55756;45.582;11.484;2023-03-14T08:25:16;30.13;;;19.00;;
68765;SDS011;55756;45.582;11.484;2023-03-14T08:27:42;34.58;;;21.45;;
68765;SDS011;55756;45.582;11.484;2023-03-14T08:30:09;31.08;;;19.75;;
68765;SDS011;55756;45.582;11.484;2023-03-14T08:32:39;27.58;;;18.80;;
68765;SDS011;55756;45.582;11.484;2023-03-14T08:35:05;28.95;;;17.48;;
68765;SDS011;55756;45.582;11.484;2023-03-14T08:37:32;28.75;;;18.38;;
68765;SDS011;55756;45.582;11.484;2023-03-14T08:39:58;24.95;;;17.58;;
68765;SDS011;55756;45.582;11.484;2023-03-14T08:42:24;26.45;;;17.33;;
68765;SDS011;55756;45.582;11.484;2023-03-14T08:44:50;27.55;;;17.27;;
68765;SDS011;55756;45.582;11.484;2023-03-14T08:47:16;28.25;;;18.35;;
68765;SDS011;55756;45.582;11.484;2023-03-14T08:49:42;30.08;;;18.60;;
68765;SDS011;55756;45.582;11.484;2023-03-14T08:52:08;28.85;;;18.40;;
68765;SDS011;55756;45.582;11.484;2023-03-14T08:54:34;25.38;;;17.15;;
68765;SDS011;55756;45.582;11.484;2023-03-14T08:57:00;25.65;;;16.58;;
68765;SDS011;55756;45.582;11.484;2023-03-14T08:59:26;25.92;;;16.48;;
68765;SDS011;55756;45.582;11.484;2023-03-14T09:01:52;28.52;;;17.25;;
68765;SDS011;55756;45.582;11.484;2023-03-14T09:04:19;24.13;;;15.95;;
68765;SDS011;55756;45.582;11.484;2023-03-14T09:06:45;25.45;;;15.90;;
68765;SDS011;55756;45.582;11.484;2023-03-14T09:09:11;27.20;;;16.75;;
68765;SDS011;55756;45.582;11.484;2023-03-14T09:11:38;24.30;;;16.08;;
68765;SDS011;55756;45.582;11.484;2023-03-14T09:14:04;23.52;;;14.55;;
68765;SDS011;55756;45.582;11.484;2023-03-14T09:16:30;23.10;;;15.25;;
68765;SDS011;55756;45.582;11.484;2023-03-14T09:18:57;23.63;;;15.48;;
68765;SDS011;55756;45.582;11.484;2023-03-14T09:21:25;23.98;;;16.40;;
68765;SDS011;55756;45.582;11.484;2023-03-14T09:23:52;24.80;;;15.27;;
68765;SDS011;55756;45.582;11.484;2023-03-14T09:26:18;27.70;;;16.45;;
68765;SDS011;55756;45.582;11.484;2023-03-14T09:28:44;22.85;;;14.95;;
68765;SDS011;55756;45.582;11.484;2023-03-14T09:31:10;21.55;;;14.25;;
68765;SDS011;55756;45.582;11.484;2023-03-14T09:33:37;22.25;;;14.25;;
68765;SDS011;55756;45.582;11.484;2023-03-14T09:36:03;20.30;;;13.43;;
68765;SDS011;55756;45.582;11.484;2023-03-14T09:38:30;20.58;;;12.82;;
68765;SDS011;55756;45.582;11.484;2023-03-14T09:40:58;21.60;;;12.90;;
68765;SDS011;55756;45.582;11.484;2023-03-14T09:43:26;23.02;;;13.23;;
68765;SDS011;55756;45.582;11.484;2023-03-14T09:45:56;21.10;;;13.45;;
68765;SDS011;55756;45.582;11.484;2023-03-14T09:48:27;19.10;;;13.20;;
68765;SDS011;55756;45.582;11.484;2023-03-14T09:50:56;22.63;;;13.82;;
68765;SDS011;55756;45.582;11.484;2023-03-14T09:53:33;20.50;;;12.85;;
68765;SDS011;55756;45.582;11.484;2023-03-14T09:56:04;19.50;;;12.60;;
68765;SDS011;55756;45.582;11.484;2023-03-14T09:58:42;22.50;;;13.55;;
68765;SDS011;55756;45.582;11.484;2023-03-14T10:01:11;20.45;;;13.40;;
68765;SDS011;55756;45.582;11.484;2023-03-14T10:03:41;21.05;;;13.60;;
68765;SDS011;55756;45.582;11.484;2023-03-14T10:06:12;20.98;;;13.63;;
68765;SDS011;55756;45.582;11.484;2023-03-14T10:08:40;20.85;;;13.95;;
68765;SDS011;55756;45.582;11.484;2023-03-14T10:11:12;21.55;;;13.80;;
68765;SDS011;55756;45.582;11.484;2023-03-14T10:13:52;19.45;;;12.88;;
68765;SDS011;55756;45.582;11.484;2023-03-14T10:16:34;21.52;;;13.85;;
68765;SDS011;55756;45.582;11.484;2023-03-14T10:19:11;21.05;;;13.48;;
68765;SDS011;55756;45.582;11.484;2023-03-14T10:21:40;20.55;;;13.80;;
68765;SDS011;55756;45.582;11.484;2023-03-14T10:26:49;21.45;;;14.75;;
68765;SDS011;55756;45.582;11.484;2023-03-14T10:29:19;23.50;;;14.32;;
68765;SDS011;55756;45.582;11.484;2023-03-14T10:31:53;20.17;;;13.32;;
68765;SDS011;55756;45.582;11.484;2023-03-14T10:34:24;20.60;;;13.02;;
68765;SDS011;55756;45.582;11.484;2023-03-14T10:36:52;19.73;;;12.05;;
68765;SDS011;55756;45.582;11.484;2023-03-14T10:39:30;19.73;;;13.52;;
68765;SDS011;55756;45.582;11.484;2023-03-14T10:42:05;20.63;;;13.50;;
68765;SDS011;55756;45.582;11.484;2023-03-14T10:44:38;23.90;;;14.88;;
68765;SDS011;55756;45.582;11.484;2023-03-14T10:47:04;22.75;;;14.43;;
68765;SDS011;55756;45.582;11.484;2023-03-14T10:49:34;24.02;;;13.88;;
68765;SDS011;55756;45.582;11.484;2023-03-14T10:52:02;19.70;;;14.07;;
68765;SDS011;55756;45.582;11.484;2023-03-14T10:54:39;21.10;;;13.30;;
68765;SDS011;55756;45.582;11.484;2023-03-14T10:57:05;19.75;;;13.18;;
68765;SDS011;55756;45.582;11.484;2023-03-14T10:59:34;19.65;;;12.60;;
68765;SDS011;55756;45.582;11.484;2023-03-14T11:04:57;20.10;;;12.13;;
68765;SDS011;55756;45.582;11.484;2023-03-14T11:10:46;17.80;;;11.43;;
68765;SDS011;55756;45.582;11.484;2023-03-14T11:15:46;18.38;;;11.98;;
68765;SDS011;55756;45.582;11.484;2023-03-14T11:21:16;17.15;;;11.52;;
68765;SDS011;55756;45.582;11.484;2023-03-14T11:26:26;17.17;;;11.38;;
68765;SDS011;55756;45.582;11.484;2023-03-14T11:29:19;18.13;;;12.43;;
68765;SDS011;55756;45.582;11.484;2023-03-14T11:31:55;18.75;;;12.48;;
68765;SDS011;55756;45.582;11.484;2023-03-14T11:37:02;20.20;;;12.70;;
68765;SDS011;55756;45.582;11.484;2023-03-14T11:39:53;18.90;;;13.07;;
68765;SDS011;55756;45.582;11.484;2023-03-14T11:42:25;20.38;;;12.25;;
68765;SDS011;55756;45.582;11.484;2023-03-14T11:44:54;19.70;;;12.70;;
68765;SDS011;55756;45.582;11.484;2023-03-14T11:52:39;20.95;;;14.65;;
68765;SDS011;55756;45.582;11.484;2023-03-14T11:57:51;24.88;;;18.20;;
68765;SDS011;55756;45.582;11.484;2023-03-14T12:00:23;22.48;;;16.02;;
68765;SDS011;55756;45.582;11.484;2023-03-14T12:08:33;19.85;;;14.98;;
68765;SDS011;55756;45.582;11.484;2023-03-14T12:11:16;20.50;;;14.80;;
68765;SDS011;55756;45.582;11.484;2023-03-14T12:13:51;19.08;;;14.73;;
68765;SDS011;55756;45.582;11.484;2023-03-14T12:16:31;18.85;;;14.20;;
68765;SDS011;55756;45.582;11.484;2023-03-14T12:18:57;20.10;;;14.13;;
68765;SDS011;55756;45.582;11.484;2023-03-14T12:22:00;19.38;;;13.82;;
68765;SDS011;55756;45.582;11.484;2023-03-14T12:24:30;18.95;;;13.75;;
68765;SDS011;55756;45.582;11.484;2023-03-14T12:27:01;20.02;;;13.27;;
68765;SDS011;55756;45.582;11.484;2023-03-14T12:29:28;18.67;;;13.38;;
68765;SDS011;55756;45.582;11.484;2023-03-14T12:34:43;19.05;;;13.32;;
68765;SDS011;55756;45.582;11.484;2023-03-14T12:37:14;22.98;;;14.82;;
68765;SDS011;55756;45.582;11.484;2023-03-14T12:39:56;46.80;;;27.77;;
68765;SDS011;55756;45.582;11.484;2023-03-14T12:45:32;20.65;;;14.10;;
68765;SDS011;55756;45.582;11.484;2023-03-14T12:50:45;20.73;;;13.77;;
68765;SDS011;55756;45.582;11.484;2023-03-14T13:01:32;17.15;;;11.57;;
68765;SDS011;55756;45.582;11.484;2023-03-14T13:04:03;19.95;;;11.90;;
68765;SDS011;55756;45.582;11.484;2023-03-14T13:06:52;19.48;;;11.40;;
68765;SDS011;55756;45.582;11.484;2023-03-14T13:12:11;18.05;;;11.20;;
68765;SDS011;55756;45.582;11.484;2023-03-14T13:14:43;17.42;;;11.45;;
68765;SDS011;55756;45.582;11.484;2023-03-14T13:17:11;20.60;;;11.10;;
68765;SDS011;55756;45.582;11.484;2023-03-14T13:19:38;17.73;;;10.77;;
68765;SDS011;55756;45.582;11.484;2023-03-14T13:22:19;21.48;;;12.98;;
68765;SDS011;55756;45.582;11.484;2023-03-14T13:24:57;21.08;;;12.48;;
68765;SDS011;55756;45.582;11.484;2023-03-14T13:27:29;19.73;;;12.52;;
68765;SDS011;55756;45.582;11.484;2023-03-14T13:29:57;18.20;;;11.40;;
68765;SDS011;55756;45.582;11.484;2023-03-14T13:32:26;16.33;;;9.30;;
68765;SDS011;55756;45.582;11.484;2023-03-14T13:34:56;15.13;;;8.65;;
68765;SDS011;55756;45.582;11.484;2023-03-14T13:37:24;16.25;;;8.68;;
68765;SDS011;55756;45.582;11.484;2023-03-14T13:39:51;18.90;;;10.52;;
68765;SDS011;55756;45.582;11.484;2023-03-14T13:42:26;17.00;;;9.40;;
68765;SDS011;55756;45.582;11.484;2023-03-14T13:44:54;17.15;;;8.52;;
68765;SDS011;55756;45.582;11.484;2023-03-14T13:47:22;19.07;;;9.17;;
68765;SDS011;55756;45.582;11.484;2023-03-14T13:49:50;17.13;;;8.57;;
68765;SDS011;55756;45.582;11.484;2023-03-14T13:52:30;17.20;;;9.32;;
68765;SDS011;55756;45.582;11.484;2023-03-14T13:55:13;15.40;;;9.20;;
68765;SDS011;55756;45.582;11.484;2023-03-14T13:57:51;16.10;;;8.88;;
68765;SDS011;55756;45.582;11.484;2023-03-14T14:00:23;15.07;;;7.70;;
68765;SDS011;55756;45.582;11.484;2023-03-14T14:02:55;13.98;;;7.40;;
68765;SDS011;55756;45.582;11.484;2023-03-14T14:05:25;15.48;;;6.88;;
68765;SDS011;55756;45.582;11.484;2023-03-14T14:07:53;14.05;;;7.22;;
68765;SDS011;55756;45.582;11.484;2023-03-14T14:10:20;17.42;;;8.32;;
68765;SDS011;55756;45.582;11.484;2023-03-14T14:12:47;16.38;;;8.05;;
68765;SDS011;55756;45.582;11.484;2023-03-14T14:15:21;15.82;;;7.90;;
68765;SDS011;55756;45.582;11.484;2023-03-14T14:17:53;15.48;;;8.02;;
68765;SDS011;55756;45.582;11.484;2023-03-14T14:22:48;16.27;;;7.75;;
68765;SDS011;55756;45.582;11.484;2023-03-14T14:25:15;15.93;;;7.13;;
68765;SDS011;55756;45.582;11.484;2023-03-14T14:27:42;13.98;;;6.90;;
68765;SDS011;55756;45.582;11.484;2023-03-14T14:32:43;16.02;;;7.72;;
68765;SDS011;55756;45.582;11.484;2023-03-14T14:37:56;15.02;;;7.30;;
68765;SDS011;55756;45.582;11.484;2023-03-14T14:40:23;13.57;;;6.28;;
68765;SDS011;55756;45.582;11.484;2023-03-14T14:42:51;15.38;;;6.57;;
68765;SDS011;55756;45.582;11.484;2023-03-14T14:45:18;15.30;;;7.00;;
68765;SDS011;55756;45.582;11.484;2023-03-14T14:47:53;15.20;;;6.72;;
68765;SDS011;55756;45.582;11.484;2023-03-14T14:50:39;15.57;;;6.30;;
68765;SDS011;55756;45.582;11.484;2023-03-14T14:53:29;13.10;;;6.50;;
68765;SDS011;55756;45.582;11.484;2023-03-14T14:56:03;13.18;;;5.93;;
68765;SDS011;55756;45.582;11.484;2023-03-14T14:58:36;15.05;;;6.45;;
68765;SDS011;55756;45.582;11.484;2023-03-14T15:01:14;13.95;;;6.15;;
68765;SDS011;55756;45.582;11.484;2023-03-14T15:03:45;14.63;;;6.40;;
68765;SDS011;55756;45.582;11.484;2023-03-14T15:06:13;15.57;;;6.57;;
68765;SDS011;55756;45.582;11.484;2023-03-14T15:08:42;14.18;;;6.55;;
68765;SDS011;55756;45.582;11.484;2023-03-14T15:11:19;14.20;;;6.60;;
68765;SDS011;55756;45.582;11.484;2023-03-14T15:13:47;13.88;;;6.40;;
68765;SDS011;55756;45.582;11.484;2023-03-14T15:16:18;13.88;;;6.38;;
68765;SDS011;55756;45.582;11.484;2023-03-14T15:18:56;14.40;;;6.00;;
68765;SDS011;55756;45.582;11.484;2023-03-14T15:21:23;16.38;;;6.43;;
68765;SDS011;55756;45.582;11.484;2023-03-14T15:23:51;14.57;;;6.28;;
68765;SDS011;55756;45.582;11.484;2023-03-14T15:26:18;12.23;;;5.75;;
68765;SDS011;55756;45.582;11.484;2023-03-14T15:28:46;13.88;;;6.10;;
68765;SDS011;55756;45.582;11.484;2023-03-14T15:31:12;14.73;;;6.80;;
68765;SDS011;55756;45.582;11.484;2023-03-14T15:33:39;15.73;;;6.60;;
68765;SDS011;55756;45.582;11.484;2023-03-14T15:36:06;11.50;;;5.80;;
68765;SDS011;55756;45.582;11.484;2023-03-14T15:38:53;15.38;;;6.28;;
68765;SDS011;55756;45.582;11.484;2023-03-14T15:41:20;13.77;;;6.13;;
68765;SDS011;55756;45.582;11.484;2023-03-14T15:43:46;14.02;;;6.20;;
68765;SDS011;55756;45.582;11.484;2023-03-14T15:46:13;14.88;;;6.93;;
68765;SDS011;55756;45.582;11.484;2023-03-14T15:48:40;15.48;;;6.45;;